^^

Nearby METAR Reports

 

KBJC - Broomfield/Jeffc, Colorado, USA
Distance from station: ESE 4mi, 6km
Updated: 11/22/2019 12:29am
Light snow, Overcast
Light snow, Overcast
 Wind from N
Wind: N 3 mph , 6 km/h
Temperature: 28°F , -2°C
Dew Point: 28°F , -2°C
Humidity: 100%
Barometer: 1018.6 hPa
Summary: Light Snow
Clouds: Overcast
Visibility: 3 miles , 5 km
Cloud details: Mostly cloudy 700 ft
Overcast 1100 ft
2019/11/22 07:29 KBJC 220729Z AUTO 36003KT 3SM -SN BKN007 OVC011 M02/M02 A3008 RMK AO2
KBDU - Boulder Muni, Colorado, USA
Distance from station: NNW 8mi, 13km
Updated: 11/22/2019 12:30am
Light snow, Overcast
Light snow, Overcast
 Wind from calm
Wind: Calm
Temperature: 28°F , -2°C
Dew Point: 28°F , -2°C
Humidity: 100%
Barometer: 1019 hPa
Summary: Light Snow
Clouds: Overcast
Visibility: 3 miles , 5 km
Cloud details: Mostly cloudy 700 ft
Overcast 1600 ft
2019/11/22 07:30 KBDU 220730Z AUTO 00000KT 3SM -SN BKN007 OVC016 M02/M02 A3009 RMK AO2
 
KEIK - Erie Muni, Colorado, USA
Distance from station: NE 8mi, 14km
Updated: 11/22/2019 12:36am
Light snow, Overcast
Light snow, Overcast
 Wind from NNE
Wind: NNE 3 mph , 6 km/h
Temperature: 30°F , -1°C
Dew Point: 28°F , -2°C
Humidity: 93%
Barometer: 1021.3 hPa
Summary: Light Snow
Clouds: Overcast
Visibility: 3 miles , 5 km
Cloud details: Overcast 800 ft
2019/11/22 07:36 KEIK 220736Z AUTO 02003KT 3SM -SN OVC008 M01/M02 A3016 RMK AO2 T10151023
KLMO - Longmont/Vbrand, Colorado, USA
Distance from station: N 17mi, 27km
Updated: 11/22/2019 12:35am
Light snow, Overcast
Light snow, Overcast
 Wind from calm
Wind: Calm
Temperature: 32°F , 0°C
Dew Point: 28°F , -2°C
Humidity: 87%
Barometer: 1020.3 hPa
Summary: Light Snow
Clouds: Overcast
Visibility: 7 miles , 11 km
Cloud details: Mostly cloudy 800 ft
Overcast 1400 ft
2019/11/22 07:35 KLMO 220735Z AUTO 00000KT 7SM -SN BKN008 OVC014 00/M02 A3013 RMK AO2 T10041025
 
KBKF - Buckley Angb/Den, Colorado, USA
Distance from station: ESE 26mi, 42km
Updated: 11/21/2019 11:58pm
Light snow, Mist, Overcast
Light snow, Mist, Overcast
 Wind from E
Wind: E 8 mph , 13 km/h
Temperature: 27°F , -3°C
Wind Chill: 19°F , -7°C
Dew Point: 27°F , -3°C
Humidity: 100%
Barometer: 1018.3 hPa
Summary: Light snow, Mist
Clouds: Overcast
Visibility: 4 miles , 6 km
Cloud details: Mostly cloudy 800 ft
Overcast 1100 ft
2019/11/22 06:58 KBKF 220658Z 10007KT 4SM -SN BR BKN008 OVC011 M03/M03 A3007 RMK AO2A SLP209 P0001 T10261027 410211040
KDEN - Denver (dia), Colorado, USA
Distance from station: E 27mi, 44km
Updated: 11/21/2019 11:53pm
Light snow, Mist, Overcast
Light snow, Mist, Overcast
 Wind from E
Wind: E 8 mph , 13 km/h
Temperature: 28°F , -2°C
Wind Chill: 20°F , -7°C
Dew Point: 27°F , -3°C
Humidity: 93%
Barometer: 1019 hPa
Summary: Light snow, Mist
Clouds: Overcast
Visibility: 3 miles , 5 km
Cloud details: Overcast 700 ft
2019/11/22 06:53 KDEN 220653Z 08007KT 3SM -SN BR OVC007 M02/M03 A3009 RMK AO2 SLP213 P0002 T10221033 410171039
 
KAPA - Denver/Arapahoe, Colorado, USA
Distance from station: SE 30mi, 48km
Updated: 11/21/2019 11:53pm
Light snow, Mist, Overcast
Light snow, Mist, Overcast
 Wind from ESE
Wind: ESE 3 mph , 6 km/h
Temperature: 28°F , -2°C
Dew Point: 27°F , -3°C
Humidity: 93%
Barometer: 1017.9 hPa
Summary: Light snow, Mist
Clouds: Overcast
Visibility: 3 miles , 5 km
Cloud details: Mostly cloudy 1200 ft
Overcast 2400 ft
2019/11/22 06:53 KAPA 220653Z 11003KT 3SM -SN BR BKN012 OVC024 M02/M03 A3006 RMK AO2 SLP213 P0000 T10171033 410171033
K0CO - Berthoud Pass, Colorado, USA
Distance from station: WSW 33mi, 54km
Updated: 11/22/2019 12:30am
Overcast
Overcast
 Wind from NNW
Wind: NNW 10 mph , 17 km/h
Temperature: 18°F , -8°C
Wind Chill: 6°F , -14°C
Dew Point: 1°F , -17°C
Humidity: 49%
Barometer: 1015.9 hPa
Clouds: Overcast
Cloud details: Overcast 200 ft
2019/11/22 07:30 K0CO 220730Z AUTO 34009KT OVC002 M08/M17 A3000 RMK AO2 PWINO
 
KFTG - Denver F. Range, Colorado, USA
Distance from station: ESE 34mi, 54km
Updated: 11/22/2019 12:30am
Light snow, Overcast
Light snow, Overcast
 Wind from ESE
Wind: ESE 9 mph , 15 km/h
Temperature: 30°F , -1°C
Wind Chill: 22°F , -6°C
Dew Point: 30°F , -1°C
Humidity: 100%
Barometer: 1019 hPa
Summary: Light Snow
Clouds: Overcast
Visibility: 5 miles , 8 km
Cloud details: Overcast 400 ft
2019/11/22 07:30 KFTG 220730Z AUTO 12008KT 5SM -SN OVC004 M01/M01 A3009 RMK AO2 T10101015
KFNL - Ft Collins/Loveland, Colorado, USA
Distance from station: N 37mi, 59km
Updated: 11/22/2019 12:27am
Light snow, Mist, Overcast
Light snow, Mist, Overcast
 Wind from SE
Wind: SE 8 mph , 13 km/h
Temperature: 28°F , -2°C
Wind Chill: 20°F , -7°C
Dew Point: 25°F , -4°C
Humidity: 86%
Barometer: 1020 hPa
Summary: Light snow, Mist
Clouds: Overcast
Visibility: 6 miles , 10 km
Cloud details: Mostly cloudy 800 ft
Overcast 2000 ft
2019/11/22 07:27 KFNL 220727Z AUTO 14007KT 6SM -SN BR BKN008 OVC020 M02/M04 A3012 RMK AO2 CIG 005V010 P0000 FZRANO
 
KGNB - Granby/Grand Co, Colorado, USA
Distance from station: WNW 42mi, 67km
Updated: 11/22/2019 12:35am
Light snow, Overcast
Light snow, Overcast
 Wind from calm
Wind: Calm
Temperature: 30°F , -1°C
Dew Point: 30°F , -1°C
Humidity: 100%
Barometer: 1014.9 hPa
Summary: Light Snow
Clouds: Overcast
Visibility: 7 miles , 11 km
Cloud details: Overcast 300 ft
2019/11/22 07:35 KGNB 220735Z AUTO 00000KT 7SM -SN OVC003 M01/M01 A2997 RMK AO2 T10061006
KGXY - Greeley/Weld, Colorado, USA
Distance from station: NE 44mi, 71km
Updated: 11/22/2019 12:29am
Light snow, Mist, Overcast
Light snow, Mist, Overcast
 Wind from ESE
Wind: ESE 6 mph , 9 km/h
Temperature: 28°F , -2°C
Wind Chill: 21°F , -6°C
Dew Point: 27°F , -3°C
Humidity: 93%
Barometer: 1020.7 hPa
Summary: Light snow, Mist
Clouds: Overcast
Visibility: 6 miles , 10 km
Cloud details: Few Clouds 600 ft
Mostly cloudy 900 ft
Overcast 3300 ft
2019/11/22 07:29 KGXY 220729Z AUTO 12005KT 6SM -SN BR FEW006 BKN009 OVC033 M02/M03 A3014 RMK AO2 P0000 FZRANO
 
KMNH - Monument/Elbert, Colorado, USA
Distance from station: SSE 56mi, 90km
Updated: 11/22/2019 12:30am
Overcast
Overcast
 
Temperature: 23°F , -5°C
Dew Point: 21°F , -6°C
Humidity: 93%
Barometer: 1017.6 hPa
Clouds: Overcast
Visibility: 10 miles , 16 km
Cloud details: Mostly cloudy 1100 ft
Overcast 3500 ft
2019/11/22 07:30 KMNH 220730Z AUTO 10SM BKN011 OVC035 M05/M06 A3005 RMK AO2